sensor_id;sensor_type;location;lat;lon;timestamp;P1;durP1;ratioP1;P2;durP2;ratioP2
75129;SDS011;63703;44.716;37.846;2022-10-16T00:01:13;11.57;;;4.20;;
75129;SDS011;63703;44.716;37.846;2022-10-16T00:03:40;9.10;;;4.60;;
75129;SDS011;63703;44.716;37.846;2022-10-16T00:06:06;7.88;;;2.80;;
75129;SDS011;63703;44.716;37.846;2022-10-16T00:08:31;12.27;;;5.20;;
75129;SDS011;63703;44.716;37.846;2022-10-16T00:11:04;5.97;;;2.80;;
75129;SDS011;63703;44.716;37.846;2022-10-16T00:13:31;9.35;;;3.03;;
75129;SDS011;63703;44.716;37.846;2022-10-16T00:15:57;9.50;;;4.00;;
75129;SDS011;63703;44.716;37.846;2022-10-16T00:18:24;6.25;;;3.28;;
75129;SDS011;63703;44.716;37.846;2022-10-16T00:20:50;8.10;;;4.43;;
75129;SDS011;63703;44.716;37.846;2022-10-16T00:23:15;8.27;;;4.15;;
75129;SDS011;63703;44.716;37.846;2022-10-16T00:25:41;6.90;;;3.50;;
75129;SDS011;63703;44.716;37.846;2022-10-16T00:28:06;7.65;;;3.22;;
75129;SDS011;63703;44.716;37.846;2022-10-16T00:30:32;7.13;;;4.18;;
75129;SDS011;63703;44.716;37.846;2022-10-16T00:32:58;5.93;;;2.70;;
75129;SDS011;63703;44.716;37.846;2022-10-16T00:35:23;6.50;;;2.75;;
75129;SDS011;63703;44.716;37.846;2022-10-16T00:37:49;8.05;;;3.70;;
75129;SDS011;63703;44.716;37.846;2022-10-16T00:40:14;10.23;;;4.05;;
75129;SDS011;63703;44.716;37.846;2022-10-16T00:42:40;8.73;;;3.40;;
75129;SDS011;63703;44.716;37.846;2022-10-16T00:45:07;6.80;;;3.47;;
75129;SDS011;63703;44.716;37.846;2022-10-16T00:47:34;7.53;;;2.90;;
75129;SDS011;63703;44.716;37.846;2022-10-16T00:50:04;8.52;;;3.75;;
75129;SDS011;63703;44.716;37.846;2022-10-16T00:52:31;9.63;;;4.82;;
75129;SDS011;63703;44.716;37.846;2022-10-16T00:54:57;7.68;;;4.32;;
75129;SDS011;63703;44.716;37.846;2022-10-16T00:57:23;7.95;;;5.10;;
75129;SDS011;63703;44.716;37.846;2022-10-16T00:59:49;12.07;;;3.80;;
75129;SDS011;63703;44.716;37.846;2022-10-16T01:02:16;8.63;;;4.30;;
75129;SDS011;63703;44.716;37.846;2022-10-16T01:04:46;8.40;;;2.80;;
75129;SDS011;63703;44.716;37.846;2022-10-16T01:09:47;7.70;;;3.55;;
75129;SDS011;63703;44.716;37.846;2022-10-16T01:14:56;7.03;;;3.40;;
75129;SDS011;63703;44.716;37.846;2022-10-16T01:17:28;9.65;;;4.03;;
75129;SDS011;63703;44.716;37.846;2022-10-16T01:20:08;7.53;;;3.92;;
75129;SDS011;63703;44.716;37.846;2022-10-16T01:22:39;6.38;;;3.40;;
75129;SDS011;63703;44.716;37.846;2022-10-16T01:25:05;8.90;;;4.30;;
75129;SDS011;63703;44.716;37.846;2022-10-16T01:27:33;8.25;;;3.53;;
75129;SDS011;63703;44.716;37.846;2022-10-16T01:30:06;7.85;;;2.88;;
75129;SDS011;63703;44.716;37.846;2022-10-16T01:32:40;7.43;;;3.60;;
75129;SDS011;63703;44.716;37.846;2022-10-16T01:37:42;6.63;;;3.33;;
75129;SDS011;63703;44.716;37.846;2022-10-16T01:40:11;8.00;;;3.63;;
75129;SDS011;63703;44.716;37.846;2022-10-16T01:42:41;7.47;;;3.40;;
75129;SDS011;63703;44.716;37.846;2022-10-16T01:45:08;6.47;;;3.03;;
75129;SDS011;63703;44.716;37.846;2022-10-16T01:47:36;6.65;;;3.45;;
75129;SDS011;63703;44.716;37.846;2022-10-16T01:50:03;7.25;;;3.00;;
75129;SDS011;63703;44.716;37.846;2022-10-16T01:52:30;7.55;;;2.55;;
75129;SDS011;63703;44.716;37.846;2022-10-16T01:54:57;8.73;;;4.25;;
75129;SDS011;63703;44.716;37.846;2022-10-16T01:57:24;7.57;;;2.38;;
75129;SDS011;63703;44.716;37.846;2022-10-16T01:59:52;6.35;;;3.67;;
75129;SDS011;63703;44.716;37.846;2022-10-16T02:02:19;5.65;;;2.60;;
75129;SDS011;63703;44.716;37.846;2022-10-16T02:04:47;7.07;;;3.90;;
75129;SDS011;63703;44.716;37.846;2022-10-16T02:07:15;5.90;;;3.40;;
75129;SDS011;63703;44.716;37.846;2022-10-16T02:09:41;7.30;;;3.20;;
75129;SDS011;63703;44.716;37.846;2022-10-16T02:12:23;6.70;;;3.65;;
75129;SDS011;63703;44.716;37.846;2022-10-16T02:14:49;6.60;;;3.65;;
75129;SDS011;63703;44.716;37.846;2022-10-16T02:17:16;5.82;;;3.22;;
75129;SDS011;63703;44.716;37.846;2022-10-16T02:19:41;8.23;;;3.28;;
75129;SDS011;63703;44.716;37.846;2022-10-16T02:22:08;4.90;;;2.45;;
75129;SDS011;63703;44.716;37.846;2022-10-16T02:27:26;6.88;;;2.85;;
75129;SDS011;63703;44.716;37.846;2022-10-16T02:29:59;5.68;;;3.05;;
75129;SDS011;63703;44.716;37.846;2022-10-16T02:32:28;6.05;;;2.75;;
75129;SDS011;63703;44.716;37.846;2022-10-16T02:34:56;8.77;;;3.05;;
75129;SDS011;63703;44.716;37.846;2022-10-16T02:37:22;7.75;;;3.50;;
75129;SDS011;63703;44.716;37.846;2022-10-16T02:39:47;7.45;;;3.03;;
75129;SDS011;63703;44.716;37.846;2022-10-16T02:42:13;8.70;;;3.38;;
75129;SDS011;63703;44.716;37.846;2022-10-16T02:44:39;8.65;;;2.70;;
75129;SDS011;63703;44.716;37.846;2022-10-16T02:47:05;5.82;;;3.03;;
75129;SDS011;63703;44.716;37.846;2022-10-16T02:49:30;6.25;;;2.95;;
75129;SDS011;63703;44.716;37.846;2022-10-16T02:51:56;7.13;;;3.35;;
75129;SDS011;63703;44.716;37.846;2022-10-16T02:54:21;5.88;;;2.30;;
75129;SDS011;63703;44.716;37.846;2022-10-16T02:56:47;8.77;;;3.83;;
75129;SDS011;63703;44.716;37.846;2022-10-16T02:59:13;5.55;;;3.45;;
75129;SDS011;63703;44.716;37.846;2022-10-16T03:01:39;6.13;;;3.35;;
75129;SDS011;63703;44.716;37.846;2022-10-16T03:04:05;6.78;;;3.20;;
75129;SDS011;63703;44.716;37.846;2022-10-16T03:06:30;7.57;;;3.42;;
75129;SDS011;63703;44.716;37.846;2022-10-16T03:08:56;6.22;;;3.88;;
75129;SDS011;63703;44.716;37.846;2022-10-16T03:11:22;9.07;;;3.00;;
75129;SDS011;63703;44.716;37.846;2022-10-16T03:13:47;5.85;;;2.67;;
75129;SDS011;63703;44.716;37.846;2022-10-16T03:16:13;6.47;;;2.72;;
75129;SDS011;63703;44.716;37.846;2022-10-16T03:18:38;5.22;;;2.67;;
75129;SDS011;63703;44.716;37.846;2022-10-16T03:21:04;5.68;;;2.90;;
75129;SDS011;63703;44.716;37.846;2022-10-16T03:23:30;4.10;;;2.30;;
75129;SDS011;63703;44.716;37.846;2022-10-16T03:25:56;5.70;;;2.33;;
75129;SDS011;63703;44.716;37.846;2022-10-16T03:28:21;7.03;;;3.80;;
75129;SDS011;63703;44.716;37.846;2022-10-16T03:30:47;7.20;;;3.38;;
75129;SDS011;63703;44.716;37.846;2022-10-16T03:33:12;5.38;;;2.85;;
75129;SDS011;63703;44.716;37.846;2022-10-16T03:35:38;7.97;;;3.85;;
75129;SDS011;63703;44.716;37.846;2022-10-16T03:38:04;5.70;;;2.70;;
75129;SDS011;63703;44.716;37.846;2022-10-16T03:40:29;5.35;;;2.90;;
75129;SDS011;63703;44.716;37.846;2022-10-16T03:42:57;10.32;;;3.00;;
75129;SDS011;63703;44.716;37.846;2022-10-16T03:45:23;7.82;;;3.00;;
75129;SDS011;63703;44.716;37.846;2022-10-16T03:47:49;7.10;;;2.50;;
75129;SDS011;63703;44.716;37.846;2022-10-16T03:50:14;7.93;;;3.13;;
75129;SDS011;63703;44.716;37.846;2022-10-16T03:52:40;9.90;;;3.85;;
75129;SDS011;63703;44.716;37.846;2022-10-16T03:55:06;6.50;;;2.75;;
75129;SDS011;63703;44.716;37.846;2022-10-16T03:57:32;5.72;;;3.15;;
75129;SDS011;63703;44.716;37.846;2022-10-16T03:59:57;7.10;;;2.75;;
75129;SDS011;63703;44.716;37.846;2022-10-16T04:02:23;7.95;;;3.95;;
75129;SDS011;63703;44.716;37.846;2022-10-16T04:04:50;8.63;;;3.50;;
75129;SDS011;63703;44.716;37.846;2022-10-16T04:07:15;6.53;;;2.33;;
75129;SDS011;63703;44.716;37.846;2022-10-16T04:09:41;7.13;;;3.15;;
75129;SDS011;63703;44.716;37.846;2022-10-16T04:12:07;6.43;;;2.97;;
75129;SDS011;63703;44.716;37.846;2022-10-16T04:14:33;6.55;;;3.15;;
75129;SDS011;63703;44.716;37.846;2022-10-16T04:16:59;7.15;;;3.35;;
75129;SDS011;63703;44.716;37.846;2022-10-16T04:19:24;6.47;;;3.58;;
75129;SDS011;63703;44.716;37.846;2022-10-16T04:21:50;6.68;;;3.08;;
75129;SDS011;63703;44.716;37.846;2022-10-16T04:24:16;7.15;;;3.85;;
75129;SDS011;63703;44.716;37.846;2022-10-16T04:26:41;6.93;;;3.58;;
75129;SDS011;63703;44.716;37.846;2022-10-16T04:29:07;7.05;;;3.53;;
75129;SDS011;63703;44.716;37.846;2022-10-16T04:31:33;7.53;;;2.97;;
75129;SDS011;63703;44.716;37.846;2022-10-16T04:33:58;6.68;;;3.55;;
75129;SDS011;63703;44.716;37.846;2022-10-16T04:36:24;5.13;;;2.67;;
75129;SDS011;63703;44.716;37.846;2022-10-16T04:38:49;5.72;;;3.30;;
75129;SDS011;63703;44.716;37.846;2022-10-16T04:41:15;5.45;;;2.28;;
75129;SDS011;63703;44.716;37.846;2022-10-16T04:43:40;6.22;;;2.92;;
75129;SDS011;63703;44.716;37.846;2022-10-16T04:46:06;7.60;;;3.00;;
75129;SDS011;63703;44.716;37.846;2022-10-16T04:48:32;7.53;;;3.78;;
75129;SDS011;63703;44.716;37.846;2022-10-16T04:50:58;9.75;;;4.15;;
75129;SDS011;63703;44.716;37.846;2022-10-16T04:53:24;6.63;;;2.58;;
75129;SDS011;63703;44.716;37.846;2022-10-16T04:55:50;6.90;;;2.38;;
75129;SDS011;63703;44.716;37.846;2022-10-16T04:58:16;5.40;;;2.35;;
75129;SDS011;63703;44.716;37.846;2022-10-16T05:00:42;10.00;;;2.60;;
75129;SDS011;63703;44.716;37.846;2022-10-16T05:03:07;6.05;;;2.88;;
75129;SDS011;63703;44.716;37.846;2022-10-16T05:05:34;7.13;;;2.65;;
75129;SDS011;63703;44.716;37.846;2022-10-16T05:08:00;6.13;;;2.58;;
75129;SDS011;63703;44.716;37.846;2022-10-16T05:10:25;5.47;;;2.85;;
75129;SDS011;63703;44.716;37.846;2022-10-16T05:12:51;7.70;;;2.30;;
75129;SDS011;63703;44.716;37.846;2022-10-16T05:15:17;7.82;;;4.03;;
75129;SDS011;63703;44.716;37.846;2022-10-16T05:17:43;6.43;;;3.20;;
75129;SDS011;63703;44.716;37.846;2022-10-16T05:20:09;5.78;;;2.53;;
75129;SDS011;63703;44.716;37.846;2022-10-16T05:22:34;7.85;;;2.45;;
75129;SDS011;63703;44.716;37.846;2022-10-16T05:25:00;8.85;;;2.78;;
75129;SDS011;63703;44.716;37.846;2022-10-16T05:27:26;6.18;;;3.20;;
75129;SDS011;63703;44.716;37.846;2022-10-16T05:29:51;5.75;;;2.15;;
75129;SDS011;63703;44.716;37.846;2022-10-16T05:32:17;5.72;;;2.03;;
75129;SDS011;63703;44.716;37.846;2022-10-16T05:34:43;5.93;;;2.88;;
75129;SDS011;63703;44.716;37.846;2022-10-16T05:37:09;6.00;;;3.20;;
75129;SDS011;63703;44.716;37.846;2022-10-16T05:39:36;7.97;;;2.50;;
75129;SDS011;63703;44.716;37.846;2022-10-16T05:42:02;5.80;;;2.15;;
75129;SDS011;63703;44.716;37.846;2022-10-16T05:44:28;6.13;;;2.58;;
75129;SDS011;63703;44.716;37.846;2022-10-16T05:46:54;5.95;;;3.55;;
75129;SDS011;63703;44.716;37.846;2022-10-16T05:49:20;4.72;;;1.63;;
75129;SDS011;63703;44.716;37.846;2022-10-16T05:51:45;7.25;;;2.60;;
75129;SDS011;63703;44.716;37.846;2022-10-16T05:54:11;5.88;;;3.10;;
75129;SDS011;63703;44.716;37.846;2022-10-16T05:56:36;5.65;;;2.55;;
75129;SDS011;63703;44.716;37.846;2022-10-16T05:59:05;6.90;;;2.88;;
75129;SDS011;63703;44.716;37.846;2022-10-16T06:01:31;7.55;;;3.38;;
75129;SDS011;63703;44.716;37.846;2022-10-16T06:03:57;5.68;;;2.17;;
75129;SDS011;63703;44.716;37.846;2022-10-16T06:06:23;5.35;;;1.98;;
75129;SDS011;63703;44.716;37.846;2022-10-16T06:08:51;6.80;;;3.15;;
75129;SDS011;63703;44.716;37.846;2022-10-16T06:11:27;4.45;;;1.92;;
75129;SDS011;63703;44.716;37.846;2022-10-16T06:13:57;6.97;;;3.08;;
75129;SDS011;63703;44.716;37.846;2022-10-16T06:16:23;6.60;;;2.28;;
75129;SDS011;63703;44.716;37.846;2022-10-16T06:18:52;9.40;;;3.05;;
75129;SDS011;63703;44.716;37.846;2022-10-16T06:21:19;6.95;;;2.30;;
75129;SDS011;63703;44.716;37.846;2022-10-16T06:23:45;5.63;;;3.03;;
75129;SDS011;63703;44.716;37.846;2022-10-16T06:26:12;5.88;;;2.67;;
75129;SDS011;63703;44.716;37.846;2022-10-16T06:28:38;6.40;;;2.08;;
75129;SDS011;63703;44.716;37.846;2022-10-16T06:31:04;5.38;;;1.90;;
75129;SDS011;63703;44.716;37.846;2022-10-16T06:33:30;6.20;;;2.40;;
75129;SDS011;63703;44.716;37.846;2022-10-16T06:36:06;5.47;;;2.25;;
75129;SDS011;63703;44.716;37.846;2022-10-16T06:38:33;10.00;;;2.90;;
75129;SDS011;63703;44.716;37.846;2022-10-16T06:40:59;5.05;;;1.92;;
75129;SDS011;63703;44.716;37.846;2022-10-16T06:43:25;6.72;;;2.10;;
75129;SDS011;63703;44.716;37.846;2022-10-16T06:45:54;6.40;;;2.33;;
75129;SDS011;63703;44.716;37.846;2022-10-16T06:48:20;4.50;;;1.90;;
75129;SDS011;63703;44.716;37.846;2022-10-16T06:50:58;5.10;;;1.95;;
75129;SDS011;63703;44.716;37.846;2022-10-16T06:53:25;6.38;;;2.13;;
75129;SDS011;63703;44.716;37.846;2022-10-16T06:55:51;6.28;;;2.20;;
75129;SDS011;63703;44.716;37.846;2022-10-16T06:58:17;5.15;;;2.63;;
75129;SDS011;63703;44.716;37.846;2022-10-16T07:00:42;6.10;;;2.72;;
75129;SDS011;63703;44.716;37.846;2022-10-16T07:03:08;5.75;;;2.45;;
75129;SDS011;63703;44.716;37.846;2022-10-16T07:05:37;8.13;;;1.77;;
75129;SDS011;63703;44.716;37.846;2022-10-16T07:08:03;7.80;;;2.45;;
75129;SDS011;63703;44.716;37.846;2022-10-16T07:10:30;7.35;;;2.90;;
75129;SDS011;63703;44.716;37.846;2022-10-16T07:12:56;9.63;;;3.65;;
75129;SDS011;63703;44.716;37.846;2022-10-16T07:15:22;4.95;;;2.63;;
75129;SDS011;63703;44.716;37.846;2022-10-16T07:17:48;6.28;;;2.92;;
75129;SDS011;63703;44.716;37.846;2022-10-16T07:20:13;6.38;;;2.90;;
75129;SDS011;63703;44.716;37.846;2022-10-16T07:22:39;6.82;;;3.00;;
75129;SDS011;63703;44.716;37.846;2022-10-16T07:25:05;5.22;;;2.28;;
75129;SDS011;63703;44.716;37.846;2022-10-16T07:27:30;4.10;;;1.88;;
75129;SDS011;63703;44.716;37.846;2022-10-16T07:29:56;8.25;;;2.22;;
75129;SDS011;63703;44.716;37.846;2022-10-16T07:32:22;4.85;;;1.98;;
75129;SDS011;63703;44.716;37.846;2022-10-16T07:34:47;7.60;;;3.00;;
75129;SDS011;63703;44.716;37.846;2022-10-16T07:37:13;4.95;;;1.88;;
75129;SDS011;63703;44.716;37.846;2022-10-16T07:39:38;5.57;;;1.95;;
75129;SDS011;63703;44.716;37.846;2022-10-16T07:42:04;5.72;;;1.92;;
75129;SDS011;63703;44.716;37.846;2022-10-16T07:44:29;6.55;;;1.70;;
75129;SDS011;63703;44.716;37.846;2022-10-16T07:46:55;5.32;;;1.85;;
75129;SDS011;63703;44.716;37.846;2022-10-16T07:49:21;4.95;;;2.47;;
75129;SDS011;63703;44.716;37.846;2022-10-16T07:51:46;6.53;;;1.88;;
75129;SDS011;63703;44.716;37.846;2022-10-16T07:54:12;6.38;;;2.40;;
75129;SDS011;63703;44.716;37.846;2022-10-16T07:56:38;5.25;;;2.33;;
75129;SDS011;63703;44.716;37.846;2022-10-16T07:59:03;4.78;;;1.92;;
75129;SDS011;63703;44.716;37.846;2022-10-16T08:01:29;8.90;;;2.03;;
75129;SDS011;63703;44.716;37.846;2022-10-16T08:03:54;5.70;;;1.33;;
75129;SDS011;63703;44.716;37.846;2022-10-16T08:06:21;5.53;;;1.48;;
75129;SDS011;63703;44.716;37.846;2022-10-16T08:08:47;6.95;;;2.25;;
75129;SDS011;63703;44.716;37.846;2022-10-16T08:11:13;5.28;;;1.15;;
75129;SDS011;63703;44.716;37.846;2022-10-16T08:13:40;5.50;;;1.45;;
75129;SDS011;63703;44.716;37.846;2022-10-16T08:16:06;5.03;;;1.63;;
75129;SDS011;63703;44.716;37.846;2022-10-16T08:18:34;9.25;;;1.40;;
75129;SDS011;63703;44.716;37.846;2022-10-16T08:21:00;6.70;;;2.20;;
75129;SDS011;63703;44.716;37.846;2022-10-16T08:23:26;4.75;;;1.65;;
75129;SDS011;63703;44.716;37.846;2022-10-16T08:25:52;7.00;;;2.28;;
75129;SDS011;63703;44.716;37.846;2022-10-16T08:28:18;6.22;;;1.75;;
75129;SDS011;63703;44.716;37.846;2022-10-16T08:30:44;4.38;;;1.08;;
75129;SDS011;63703;44.716;37.846;2022-10-16T08:33:10;6.05;;;1.98;;
75129;SDS011;63703;44.716;37.846;2022-10-16T08:35:36;9.00;;;1.85;;
75129;SDS011;63703;44.716;37.846;2022-10-16T08:38:05;5.63;;;1.75;;
75129;SDS011;63703;44.716;37.846;2022-10-16T08:40:32;6.22;;;1.20;;
75129;SDS011;63703;44.716;37.846;2022-10-16T08:43:05;5.68;;;1.48;;
75129;SDS011;63703;44.716;37.846;2022-10-16T08:45:36;3.70;;;1.27;;
75129;SDS011;63703;44.716;37.846;2022-10-16T08:48:20;3.97;;;1.70;;
75129;SDS011;63703;44.716;37.846;2022-10-16T08:50:48;7.93;;;1.75;;
75129;SDS011;63703;44.716;37.846;2022-10-16T08:53:16;5.13;;;2.78;;
75129;SDS011;63703;44.716;37.846;2022-10-16T08:55:45;5.75;;;1.85;;
75129;SDS011;63703;44.716;37.846;2022-10-16T08:58:21;5.60;;;1.88;;
75129;SDS011;63703;44.716;37.846;2022-10-16T09:00:51;3.67;;;1.13;;
75129;SDS011;63703;44.716;37.846;2022-10-16T09:13:19;7.45;;;2.30;;
75129;SDS011;63703;44.716;37.846;2022-10-16T09:15:48;4.60;;;1.48;;
75129;SDS011;63703;44.716;37.846;2022-10-16T09:21:07;4.85;;;0.98;;
75129;SDS011;63703;44.716;37.846;2022-10-16T09:23:35;5.10;;;1.38;;
75129;SDS011;63703;44.716;37.846;2022-10-16T09:26:02;3.80;;;1.08;;
75129;SDS011;63703;44.716;37.846;2022-10-16T09:28:29;7.07;;;2.17;;
75129;SDS011;63703;44.716;37.846;2022-10-16T09:30:55;6.35;;;2.22;;
75129;SDS011;63703;44.716;37.846;2022-10-16T09:33:22;4.20;;;1.50;;
75129;SDS011;63703;44.716;37.846;2022-10-16T09:35:50;7.20;;;1.60;;
75129;SDS011;63703;44.716;37.846;2022-10-16T09:38:26;5.40;;;1.33;;
75129;SDS011;63703;44.716;37.846;2022-10-16T09:40:53;4.93;;;1.45;;
75129;SDS011;63703;44.716;37.846;2022-10-16T09:45:59;5.75;;;1.73;;
75129;SDS011;63703;44.716;37.846;2022-10-16T09:50:57;8.20;;;1.55;;
75129;SDS011;63703;44.716;37.846;2022-10-16T09:53:23;4.57;;;1.70;;
75129;SDS011;63703;44.716;37.846;2022-10-16T09:55:49;3.80;;;1.20;;
75129;SDS011;63703;44.716;37.846;2022-10-16T09:58:15;7.80;;;1.23;;
75129;SDS011;63703;44.716;37.846;2022-10-16T10:00:41;5.85;;;1.35;;
75129;SDS011;63703;44.716;37.846;2022-10-16T10:03:10;3.47;;;1.48;;
75129;SDS011;63703;44.716;37.846;2022-10-16T10:05:37;4.35;;;1.63;;
75129;SDS011;63703;44.716;37.846;2022-10-16T10:08:04;6.00;;;1.70;;
75129;SDS011;63703;44.716;37.846;2022-10-16T10:10:34;5.55;;;1.42;;
75129;SDS011;63703;44.716;37.846;2022-10-16T10:13:02;4.47;;;1.92;;
75129;SDS011;63703;44.716;37.846;2022-10-16T10:15:29;7.43;;;2.05;;
75129;SDS011;63703;44.716;37.846;2022-10-16T10:17:58;4.05;;;1.65;;
75129;SDS011;63703;44.716;37.846;2022-10-16T10:20:28;3.95;;;1.80;;
75129;SDS011;63703;44.716;37.846;2022-10-16T10:22:54;3.25;;;1.13;;
75129;SDS011;63703;44.716;37.846;2022-10-16T10:30:19;5.53;;;1.40;;
75129;SDS011;63703;44.716;37.846;2022-10-16T10:35:30;5.93;;;1.98;;
75129;SDS011;63703;44.716;37.846;2022-10-16T10:38:17;5.32;;;1.70;;
75129;SDS011;63703;44.716;37.846;2022-10-16T10:40:48;5.55;;;1.52;;
75129;SDS011;63703;44.716;37.846;2022-10-16T10:45:42;7.25;;;2.88;;
75129;SDS011;63703;44.716;37.846;2022-10-16T10:48:21;5.70;;;2.05;;
75129;SDS011;63703;44.716;37.846;2022-10-16T10:50:49;4.60;;;1.38;;
75129;SDS011;63703;44.716;37.846;2022-10-16T11:01:07;4.60;;;1.73;;
75129;SDS011;63703;44.716;37.846;2022-10-16T11:06:16;6.15;;;2.38;;
75129;SDS011;63703;44.716;37.846;2022-10-16T11:08:45;9.48;;;2.65;;
75129;SDS011;63703;44.716;37.846;2022-10-16T11:13:52;6.10;;;2.00;;
75129;SDS011;63703;44.716;37.846;2022-10-16T11:16:27;6.93;;;2.08;;
75129;SDS011;63703;44.716;37.846;2022-10-16T11:19:03;6.45;;;2.17;;
75129;SDS011;63703;44.716;37.846;2022-10-16T11:21:36;5.28;;;2.42;;
75129;SDS011;63703;44.716;37.846;2022-10-16T11:24:08;7.07;;;1.88;;
75129;SDS011;63703;44.716;37.846;2022-10-16T11:26:39;10.45;;;3.35;;
75129;SDS011;63703;44.716;37.846;2022-10-16T11:29:10;6.90;;;1.98;;
75129;SDS011;63703;44.716;37.846;2022-10-16T11:31:45;7.03;;;2.28;;
75129;SDS011;63703;44.716;37.846;2022-10-16T11:34:27;7.70;;;2.35;;
75129;SDS011;63703;44.716;37.846;2022-10-16T11:39:21;7.72;;;3.08;;
75129;SDS011;63703;44.716;37.846;2022-10-16T11:47:07;11.95;;;3.13;;
75129;SDS011;63703;44.716;37.846;2022-10-16T11:49:34;9.90;;;2.47;;
75129;SDS011;63703;44.716;37.846;2022-10-16T11:52:19;8.75;;;1.90;;
75129;SDS011;63703;44.716;37.846;2022-10-16T11:55:06;6.18;;;2.33;;
75129;SDS011;63703;44.716;37.846;2022-10-16T11:57:39;7.82;;;2.30;;
75129;SDS011;63703;44.716;37.846;2022-10-16T12:00:28;6.57;;;1.45;;
75129;SDS011;63703;44.716;37.846;2022-10-16T12:05:33;8.80;;;4.10;;
75129;SDS011;63703;44.716;37.846;2022-10-16T12:08:02;6.25;;;2.88;;
75129;SDS011;63703;44.716;37.846;2022-10-16T12:10:30;8.65;;;2.55;;
75129;SDS011;63703;44.716;37.846;2022-10-16T12:13:27;15.02;;;2.67;;
75129;SDS011;63703;44.716;37.846;2022-10-16T12:15:51;10.98;;;2.83;;
75129;SDS011;63703;44.716;37.846;2022-10-16T12:18:22;8.77;;;2.42;;
75129;SDS011;63703;44.716;37.846;2022-10-16T12:20:56;6.57;;;2.65;;
75129;SDS011;63703;44.716;37.846;2022-10-16T12:23:30;9.80;;;2.38;;
75129;SDS011;63703;44.716;37.846;2022-10-16T12:25:56;5.15;;;2.50;;
75129;SDS011;63703;44.716;37.846;2022-10-16T12:28:26;7.90;;;2.72;;
75129;SDS011;63703;44.716;37.846;2022-10-16T12:30:57;7.13;;;2.90;;
75129;SDS011;63703;44.716;37.846;2022-10-16T12:33:27;6.82;;;1.85;;
75129;SDS011;63703;44.716;37.846;2022-10-16T12:35:53;5.50;;;2.33;;
75129;SDS011;63703;44.716;37.846;2022-10-16T12:38:20;5.07;;;2.20;;
75129;SDS011;63703;44.716;37.846;2022-10-16T12:40:53;4.60;;;2.38;;
75129;SDS011;63703;44.716;37.846;2022-10-16T12:45:46;6.25;;;2.80;;
75129;SDS011;63703;44.716;37.846;2022-10-16T12:48:21;5.22;;;1.92;;
75129;SDS011;63703;44.716;37.846;2022-10-16T12:50:47;4.30;;;2.50;;
75129;SDS011;63703;44.716;37.846;2022-10-16T12:53:20;5.43;;;1.95;;
75129;SDS011;63703;44.716;37.846;2022-10-16T12:55:56;4.32;;;1.90;;
75129;SDS011;63703;44.716;37.846;2022-10-16T13:00:57;6.72;;;2.58;;
75129;SDS011;63703;44.716;37.846;2022-10-16T13:11:22;5.78;;;2.30;;
75129;SDS011;63703;44.716;37.846;2022-10-16T13:19:06;5.93;;;2.15;;
75129;SDS011;63703;44.716;37.846;2022-10-16T13:21:42;6.60;;;2.45;;
75129;SDS011;63703;44.716;37.846;2022-10-16T13:24:25;6.78;;;1.70;;
75129;SDS011;63703;44.716;37.846;2022-10-16T13:27:02;6.45;;;1.70;;
75129;SDS011;63703;44.716;37.846;2022-10-16T13:29:32;5.78;;;1.45;;
75129;SDS011;63703;44.716;37.846;2022-10-16T13:31:58;6.07;;;2.05;;
75129;SDS011;63703;44.716;37.846;2022-10-16T13:34:24;7.13;;;1.73;;
75129;SDS011;63703;44.716;37.846;2022-10-16T13:36:51;4.85;;;2.33;;
75129;SDS011;63703;44.716;37.846;2022-10-16T13:39:24;5.10;;;1.92;;
75129;SDS011;63703;44.716;37.846;2022-10-16T13:42:06;6.50;;;2.03;;
75129;SDS011;63703;44.716;37.846;2022-10-16T13:44:41;6.07;;;1.65;;
75129;SDS011;63703;44.716;37.846;2022-10-16T13:47:41;4.50;;;1.45;;
75129;SDS011;63703;44.716;37.846;2022-10-16T13:50:01;4.28;;;2.03;;
75129;SDS011;63703;44.716;37.846;2022-10-16T13:52:27;4.43;;;1.65;;
75129;SDS011;63703;44.716;37.846;2022-10-16T13:54:53;4.53;;;1.80;;
75129;SDS011;63703;44.716;37.846;2022-10-16T13:57:21;5.47;;;1.67;;
75129;SDS011;63703;44.716;37.846;2022-10-16T13:59:47;7.78;;;3.38;;
75129;SDS011;63703;44.716;37.846;2022-10-16T14:04:41;9.70;;;2.15;;
75129;SDS011;63703;44.716;37.846;2022-10-16T14:07:12;6.05;;;2.90;;
75129;SDS011;63703;44.716;37.846;2022-10-16T14:09:38;7.78;;;2.30;;
75129;SDS011;63703;44.716;37.846;2022-10-16T14:12:07;5.55;;;2.65;;
75129;SDS011;63703;44.716;37.846;2022-10-16T14:14:35;5.75;;;3.05;;
75129;SDS011;63703;44.716;37.846;2022-10-16T14:17:02;4.85;;;2.35;;
75129;SDS011;63703;44.716;37.846;2022-10-16T14:19:29;8.35;;;2.42;;
75129;SDS011;63703;44.716;37.846;2022-10-16T14:21:55;9.73;;;3.63;;
75129;SDS011;63703;44.716;37.846;2022-10-16T14:24:31;6.05;;;2.47;;
75129;SDS011;63703;44.716;37.846;2022-10-16T14:26:59;9.73;;;2.92;;
75129;SDS011;63703;44.716;37.846;2022-10-16T14:29:26;7.97;;;2.90;;
75129;SDS011;63703;44.716;37.846;2022-10-16T14:31:56;17.02;;;2.85;;
75129;SDS011;63703;44.716;37.846;2022-10-16T14:34:24;10.00;;;2.70;;
75129;SDS011;63703;44.716;37.846;2022-10-16T14:36:49;8.52;;;2.65;;
75129;SDS011;63703;44.716;37.846;2022-10-16T14:39:19;6.20;;;2.85;;
75129;SDS011;63703;44.716;37.846;2022-10-16T14:44:11;8.25;;;2.80;;
75129;SDS011;63703;44.716;37.846;2022-10-16T14:46:38;5.80;;;3.28;;
75129;SDS011;63703;44.716;37.846;2022-10-16T14:51:36;6.57;;;3.17;;
75129;SDS011;63703;44.716;37.846;2022-10-16T14:54:01;5.80;;;1.55;;
75129;SDS011;63703;44.716;37.846;2022-10-16T14:56:44;7.68;;;3.28;;
75129;SDS011;63703;44.716;37.846;2022-10-16T14:59:45;5.13;;;2.80;;
75129;SDS011;63703;44.716;37.846;2022-10-16T15:04:42;6.93;;;1.60;;
75129;SDS011;63703;44.716;37.846;2022-10-16T15:07:07;7.32;;;2.25;;
75129;SDS011;63703;44.716;37.846;2022-10-16T15:09:33;9.93;;;3.13;;
75129;SDS011;63703;44.716;37.846;2022-10-16T15:11:59;7.65;;;2.60;;
75129;SDS011;63703;44.716;37.846;2022-10-16T15:14:24;4.10;;;1.55;;
75129;SDS011;63703;44.716;37.846;2022-10-16T15:16:50;7.50;;;2.13;;
75129;SDS011;63703;44.716;37.846;2022-10-16T15:19:16;10.80;;;2.28;;
75129;SDS011;63703;44.716;37.846;2022-10-16T15:21:41;6.30;;;3.10;;
75129;SDS011;63703;44.716;37.846;2022-10-16T15:24:09;4.95;;;2.00;;
75129;SDS011;63703;44.716;37.846;2022-10-16T15:26:36;8.35;;;2.25;;
75129;SDS011;63703;44.716;37.846;2022-10-16T15:29:02;8.77;;;2.30;;
75129;SDS011;63703;44.716;37.846;2022-10-16T15:31:27;8.13;;;2.22;;
75129;SDS011;63703;44.716;37.846;2022-10-16T15:33:53;12.13;;;2.58;;
75129;SDS011;63703;44.716;37.846;2022-10-16T15:36:34;4.70;;;1.42;;
75129;SDS011;63703;44.716;37.846;2022-10-16T15:39:05;5.60;;;2.45;;
75129;SDS011;63703;44.716;37.846;2022-10-16T15:41:30;5.47;;;2.45;;
75129;SDS011;63703;44.716;37.846;2022-10-16T15:43:56;5.88;;;2.22;;
75129;SDS011;63703;44.716;37.846;2022-10-16T15:46:23;9.00;;;1.90;;
75129;SDS011;63703;44.716;37.846;2022-10-16T15:48:49;6.03;;;2.78;;
75129;SDS011;63703;44.716;37.846;2022-10-16T15:51:15;5.43;;;2.70;;
75129;SDS011;63703;44.716;37.846;2022-10-16T15:53:41;7.07;;;1.77;;
75129;SDS011;63703;44.716;37.846;2022-10-16T15:56:07;5.72;;;1.20;;
75129;SDS011;63703;44.716;37.846;2022-10-16T15:58:33;7.50;;;2.38;;
75129;SDS011;63703;44.716;37.846;2022-10-16T16:01:00;5.60;;;2.38;;
75129;SDS011;63703;44.716;37.846;2022-10-16T16:03:27;7.32;;;3.08;;
75129;SDS011;63703;44.716;37.846;2022-10-16T16:05:53;6.55;;;2.63;;
75129;SDS011;63703;44.716;37.846;2022-10-16T16:08:19;5.57;;;2.28;;